Time;durP1;ratioP1;P1;durP2;ratioP2;P2;SDS_P1;SDS_P2;PMS_P1;PMS_P2;Temp;Humidity;BMP_temperature;BMP_pressure;BME280_temperature;BME280_humidity;BME280_pressure;Samples;Min_cycle;Max_cycle;Signal;HPM_P1;HPM_P2
2023/08/01 00:00:36;;;;;;;0.60;0.50;;;23.40;91.30;;;;;;6242704;23;20175;-84
2023/08/01 00:03:05;;;;;;;0.28;0.28;;;23.40;91.30;;;;;;6242597;23;20194;-86
2023/08/01 00:05:35;;;;;;;0.30;0.30;;;23.40;91.40;;;;;;6240881;23;20193;-84
2023/08/01 00:08:04;;;;;;;1.35;0.82;;;23.40;91.50;;;;;;6241339;23;20155;-85
2023/08/01 00:10:33;;;;;;;1.33;0.68;;;23.40;91.50;;;;;;6241447;23;20174;-84
2023/08/01 00:13:01;;;;;;;0.63;0.63;;;23.30;91.40;;;;;;6241976;22;20167;-86
2023/08/01 00:15:30;;;;;;;0.65;0.50;;;23.30;91.40;;;;;;6242522;23;20170;-84
2023/08/01 00:17:59;;;;;;;0.60;0.40;;;23.30;91.40;;;;;;6241578;22;20178;-84
2023/08/01 00:20:28;;;;;;;0.32;0.32;;;23.30;91.40;;;;;;6242890;22;20252;-84
2023/08/01 00:22:58;;;;;;;0.40;0.40;;;23.30;91.30;;;;;;6241532;23;20620;-86
2023/08/01 00:25:27;;;;;;;0.10;0.10;;;23.20;91.30;;;;;;6240933;23;20197;-84
2023/08/01 00:27:55;;;;;;;0.40;0.35;;;23.30;91.30;;;;;;6243247;23;20250;-87
2023/08/01 00:30:24;;;;;;;0.65;0.30;;;23.30;91.30;;;;;;6241121;22;20174;-83
2023/08/01 00:32:52;;;;;;;0.75;0.40;;;23.20;91.30;;;;;;6243438;23;20179;-85
2023/08/01 00:35:21;;;;;;;0.38;0.38;;;23.20;91.30;;;;;;6243902;23;20707;-83
2023/08/01 00:37:50;;;;;;;0.30;0.30;;;23.20;91.20;;;;;;6240599;23;20170;-86
2023/08/01 00:40:20;;;;;;;0.80;0.60;;;23.20;91.30;;;;;;6241701;23;20200;-85
2023/08/01 00:42:55;;;;;;;0.17;0.17;;;23.20;91.30;;;;;;6240933;22;20162;-85
2023/08/01 00:45:24;;;;;;;0.70;0.70;;;23.10;91.20;;;;;;6241330;23;20460;-84
2023/08/01 00:47:54;;;;;;;0.40;0.40;;;23.10;91.20;;;;;;6242914;23;20201;-85
2023/08/01 00:50:23;;;;;;;0.20;0.20;;;23.10;91.40;;;;;;6242907;23;20186;-83
2023/08/01 00:52:53;;;;;;;1.17;0.70;;;23.00;91.40;;;;;;6242516;23;20206;-84
2023/08/01 00:55:24;;;;;;;0.30;0.30;;;23.00;91.30;;;;;;6242008;23;20174;-84
2023/08/01 00:57:54;;;;;;;0.57;0.55;;;23.00;91.30;;;;;;6241881;23;20241;-84
2023/08/01 01:00:24;;;;;;;0.47;0.47;;;23.00;91.40;;;;;;6239959;23;20196;-84
2023/08/01 01:02:53;;;;;;;0.20;0.20;;;23.00;91.40;;;;;;6240367;23;20194;-85
2023/08/01 01:05:23;;;;;;;2.53;1.45;;;22.90;91.40;;;;;;6243455;23;20171;-83
2023/08/01 01:07:51;;;;;;;0.50;0.40;;;22.90;91.40;;;;;;6243030;22;20253;-83
2023/08/01 01:10:20;;;;;;;0.50;0.20;;;22.90;91.40;;;;;;6239837;23;20171;-85
2023/08/01 01:12:51;;;;;;;0.30;0.30;;;22.90;91.40;;;;;;6241318;23;20171;-84
2023/08/01 01:15:20;;;;;;;0.90;0.75;;;22.90;91.40;;;;;;6241633;23;20159;-83
2023/08/01 01:17:48;;;;;;;0.20;0.20;;;22.80;91.40;;;;;;6241519;23;20170;-86
2023/08/01 01:20:23;;;;;;;0.20;0.20;;;22.90;91.40;;;;;;6239959;23;20194;-83
2023/08/01 01:22:56;;;;;;;1.40;0.47;;;22.80;91.40;;;;;;6242643;23;20662;-85
2023/08/01 01:25:25;;;;;;;0.85;0.43;;;22.80;91.40;;;;;;6241277;23;20608;-83
2023/08/01 01:27:55;;;;;;;0.80;0.77;;;22.80;91.40;;;;;;6238117;23;20210;-85
2023/08/01 01:30:29;;;;;;;0.45;0.45;;;22.80;91.40;;;;;;6241220;22;20159;-83
2023/08/01 01:32:58;;;;;;;0.22;0.22;;;22.80;91.40;;;;;;6241343;23;20655;-86
2023/08/01 01:35:27;;;;;;;0.47;0.47;;;22.80;91.50;;;;;;6241047;23;20197;-83
2023/08/01 01:37:58;;;;;;;0.20;0.20;;;22.80;91.50;;;;;;6241591;23;20170;-85
2023/08/01 01:40:27;;;;;;;0.47;0.47;;;22.70;91.40;;;;;;6240093;22;20198;-83
2023/08/01 01:42:55;;;;;;;0.95;0.30;;;22.70;91.40;;;;;;6242918;23;20170;-84
2023/08/01 01:45:24;;;;;;;0.50;0.50;;;22.70;91.40;;;;;;6215787;23;20177;-83
2023/08/01 01:47:53;;;;;;;0.47;0.47;;;22.70;91.50;;;;;;6242466;22;20619;-85
2023/08/01 01:50:22;;;;;;;0.38;0.38;;;22.70;91.50;;;;;;6240581;23;20201;-83
2023/08/01 01:52:50;;;;;;;3.30;0.45;;;22.70;91.50;;;;;;6241047;23;20174;-83
2023/08/01 01:55:20;;;;;;;0.30;0.30;;;22.70;91.50;;;;;;6241921;23;20209;-83
2023/08/01 01:57:49;;;;;;;0.60;0.60;;;22.70;91.60;;;;;;6240706;23;21001;-85
2023/08/01 02:00:18;;;;;;;0.20;0.20;;;22.70;91.60;;;;;;6241423;22;20197;-84
2023/08/01 02:02:47;;;;;;;0.22;0.22;;;22.60;91.70;;;;;;6239791;23;20190;-83
2023/08/01 02:05:16;;;;;;;0.30;0.30;;;22.60;91.70;;;;;;6241727;23;20159;-85
2023/08/01 02:07:45;;;;;;;0.47;0.47;;;22.60;91.70;;;;;;6239630;23;20246;-85
2023/08/01 02:10:14;;;;;;;0.32;0.32;;;22.60;91.70;;;;;;6241142;23;20703;-85
2023/08/01 02:12:44;;;;;;;0.32;0.32;;;22.60;91.80;;;;;;6238346;22;20174;-85
2023/08/01 02:15:12;;;;;;;0.30;0.28;;;22.60;91.90;;;;;;6239726;23;20194;-84
2023/08/01 02:17:41;;;;;;;0.43;0.43;;;22.60;91.90;;;;;;6240366;22;20173;-85
2023/08/01 02:20:10;;;;;;;1.63;1.13;;;22.50;91.90;;;;;;6241799;23;20198;-83
2023/08/01 02:22:38;;;;;;;1.20;1.10;;;22.60;91.90;;;;;;6241037;23;20173;-84
2023/08/01 02:25:06;;;;;;;0.20;0.20;;;22.50;91.90;;;;;;6240874;23;20667;-84
2023/08/01 02:27:34;;;;;;;0.25;0.25;;;22.50;92.00;;;;;;6239490;22;20585;-85
2023/08/01 02:30:06;;;;;;;0.40;0.40;;;22.50;92.00;;;;;;6239406;22;20177;-84
2023/08/01 02:32:34;;;;;;;0.60;0.30;;;22.50;92.00;;;;;;6241474;22;20170;-84
2023/08/01 02:35:04;;;;;;;0.82;0.68;;;22.50;92.10;;;;;;6240421;23;20170;-85
2023/08/01 02:37:32;;;;;;;0.30;0.30;;;22.50;92.20;;;;;;6239073;23;20682;-85
2023/08/01 02:40:02;;;;;;;0.30;0.30;;;22.40;92.10;;;;;;6242778;22;20247;-85
2023/08/01 02:42:31;;;;;;;1.33;0.50;;;22.40;92.00;;;;;;6240873;23;20170;-85
2023/08/01 02:44:59;;;;;;;0.50;0.50;;;22.50;92.10;;;;;;6238925;23;20628;-85
2023/08/01 02:47:29;;;;;;;0.63;0.63;;;22.40;92.10;;;;;;6242034;23;20171;-85
2023/08/01 02:49:58;;;;;;;0.57;0.35;;;22.40;92.10;;;;;;6240858;23;20220;-85
2023/08/01 02:52:27;;;;;;;0.43;0.43;;;22.50;92.10;;;;;;6241103;23;20170;-83
2023/08/01 02:54:56;;;;;;;0.65;0.30;;;22.40;92.10;;;;;;6240396;22;20249;-85
2023/08/01 02:57:25;;;;;;;0.68;0.52;;;22.40;92.10;;;;;;6240194;22;20181;-85
2023/08/01 02:59:54;;;;;;;0.20;0.20;;;22.40;92.20;;;;;;6239764;23;20655;-84
2023/08/01 03:02:23;;;;;;;0.43;0.43;;;22.40;92.30;;;;;;6240959;23;20174;-83
2023/08/01 03:04:53;;;;;;;0.80;0.60;;;22.40;92.20;;;;;;6240729;22;20715;-84
2023/08/01 03:07:22;;;;;;;0.38;0.38;;;22.40;92.20;;;;;;6238697;23;20159;-84
2023/08/01 03:09:50;;;;;;;0.47;0.47;;;22.40;92.20;;;;;;6240288;22;20169;-85
2023/08/01 03:12:19;;;;;;;0.30;0.30;;;22.40;92.20;;;;;;6241218;23;20167;-84
2023/08/01 03:14:49;;;;;;;0.20;0.20;;;22.40;92.20;;;;;;6240770;22;20250;-85
2023/08/01 03:17:18;;;;;;;0.38;0.20;;;22.40;92.20;;;;;;6240340;23;20182;-85
2023/08/01 03:19:48;;;;;;;0.32;0.32;;;22.40;92.20;;;;;;6243534;23;20170;-84
2023/08/01 03:22:19;;;;;;;0.30;0.30;;;22.40;92.20;;;;;;6240350;23;20169;-85
2023/08/01 03:24:47;;;;;;;0.20;0.20;;;22.40;92.20;;;;;;6243052;23;20163;-85
2023/08/01 03:27:16;;;;;;;0.40;0.40;;;22.40;92.20;;;;;;6239416;22;20495;-83
2023/08/01 03:29:45;;;;;;;0.20;0.20;;;22.40;92.20;;;;;;6240716;23;20174;-83
2023/08/01 03:32:13;;;;;;;0.52;0.52;;;22.40;92.30;;;;;;6238498;23;20171;-83
2023/08/01 03:34:42;;;;;;;0.40;0.40;;;22.40;92.30;;;;;;6239338;23;20171;-84
2023/08/01 03:37:10;;;;;;;1.17;0.38;;;22.40;92.40;;;;;;6240495;23;20501;-83
2023/08/01 03:39:40;;;;;;;1.25;1.00;;;22.40;92.50;;;;;;6241659;22;20177;-83
2023/08/01 03:42:09;;;;;;;0.35;0.35;;;22.40;92.90;;;;;;6240941;23;20186;-83
2023/08/01 03:44:39;;;;;;;0.65;0.63;;;22.40;92.50;;;;;;6242677;22;20623;-85
2023/08/01 03:47:08;;;;;;;0.40;0.40;;;22.40;92.50;;;;;;6239715;23;20181;-83
2023/08/01 03:49:36;;;;;;;0.22;0.22;;;22.40;92.50;;;;;;6240393;23;20495;-83
2023/08/01 03:52:06;;;;;;;0.38;0.38;;;22.50;92.50;;;;;;6264223;22;20189;-83
2023/08/01 03:54:36;;;;;;;0.20;0.20;;;22.50;92.50;;;;;;6243005;22;20233;-84
2023/08/01 03:57:07;;;;;;;0.50;0.50;;;22.60;92.50;;;;;;6240927;23;20173;-82
2023/08/01 03:59:35;;;;;;;0.63;0.50;;;22.60;92.60;;;;;;6241808;23;20162;-82
2023/08/01 04:02:04;;;;;;;0.65;0.63;;;22.60;93.00;;;;;;6240341;23;20547;-84
2023/08/01 04:04:33;;;;;;;0.30;0.30;;;22.60;92.60;;;;;;6242172;23;20195;-86
2023/08/01 04:07:01;;;;;;;0.28;0.28;;;22.60;92.70;;;;;;6242124;22;20173;-84
2023/08/01 04:09:30;;;;;;;1.17;1.10;;;22.60;92.80;;;;;;6241674;22;20613;-85
2023/08/01 04:11:58;;;;;;;0.20;0.20;;;22.60;92.80;;;;;;6241185;23;20174;-85
2023/08/01 04:14:28;;;;;;;1.33;0.47;;;22.60;92.90;;;;;;6241126;22;20228;-85
2023/08/01 04:16:57;;;;;;;0.47;0.47;;;22.70;92.90;;;;;;6239654;23;20521;-82
2023/08/01 04:19:26;;;;;;;0.80;0.57;;;22.70;92.90;;;;;;6243106;23;20171;-82
2023/08/01 04:21:54;;;;;;;0.45;0.45;;;22.70;92.80;;;;;;6242272;23;20285;-85
2023/08/01 04:24:25;;;;;;;0.43;0.32;;;22.80;92.90;;;;;;6239631;22;20178;-84
2023/08/01 04:26:53;;;;;;;0.68;0.40;;;22.80;93.00;;;;;;6241616;22;20197;-83
2023/08/01 04:29:22;;;;;;;0.65;0.35;;;22.90;93.00;;;;;;6241849;22;20248;-84
2023/08/01 04:31:52;;;;;;;0.47;0.47;;;22.90;93.10;;;;;;6237440;23;20174;-84
2023/08/01 04:34:21;;;;;;;0.30;0.30;;;22.90;93.10;;;;;;6242038;23;20321;-85
2023/08/01 04:36:49;;;;;;;1.13;0.93;;;22.90;93.10;;;;;;6243337;23;20542;-83
2023/08/01 04:39:18;;;;;;;0.77;0.52;;;23.00;93.20;;;;;;6240761;23;20175;-83
2023/08/01 04:41:46;;;;;;;0.55;0.40;;;23.00;93.30;;;;;;6238379;23;20553;-83
2023/08/01 04:44:15;;;;;;;2.38;0.73;;;23.00;93.20;;;;;;6242896;22;20167;-85
2023/08/01 04:46:43;;;;;;;0.40;0.40;;;23.10;93.20;;;;;;6241720;22;20189;-84
2023/08/01 04:49:14;;;;;;;0.47;0.40;;;23.20;93.30;;;;;;6240224;22;20178;-84
2023/08/01 04:51:42;;;;;;;0.47;0.35;;;23.20;93.30;;;;;;6240439;23;20170;-84
2023/08/01 04:54:10;;;;;;;3.63;1.45;;;23.30;93.30;;;;;;6240315;23;20692;-84
2023/08/01 04:56:39;;;;;;;0.65;0.57;;;23.30;93.50;;;;;;6241681;23;20171;-83
2023/08/01 04:59:09;;;;;;;1.13;1.05;;;23.30;93.50;;;;;;6244849;22;20174;-92
2023/08/01 05:01:38;;;;;;;0.30;0.30;;;23.40;93.50;;;;;;6244413;23;20182;-86
2023/08/01 05:04:06;;;;;;;0.47;0.47;;;23.50;93.40;;;;;;6240234;23;20293;-85
2023/08/01 05:06:37;;;;;;;0.32;0.32;;;23.50;93.40;;;;;;6242135;23;20173;-85
2023/08/01 05:09:06;;;;;;;0.40;0.40;;;23.50;93.40;;;;;;6242574;23;20275;-84
2023/08/01 05:11:35;;;;;;;2.70;0.47;;;23.60;93.30;;;;;;6240415;23;20177;-84
2023/08/01 05:14:04;;;;;;;0.90;0.50;;;23.60;93.30;;;;;;6239928;23;20732;-86
2023/08/01 05:16:32;;;;;;;0.60;0.60;;;23.70;93.50;;;;;;6241876;23;20666;-85
2023/08/01 05:19:01;;;;;;;0.38;0.32;;;23.70;93.40;;;;;;6238715;23;20351;-86
2023/08/01 05:21:29;;;;;;;0.90;0.90;;;23.80;93.50;;;;;;6240982;23;20198;-84
2023/08/01 05:24:00;;;;;;;0.57;0.57;;;23.80;93.40;;;;;;6241347;23;20175;-85
2023/08/01 05:26:28;;;;;;;0.95;0.65;;;23.90;93.30;;;;;;6240518;23;20480;-86
2023/08/01 05:28:57;;;;;;;0.30;0.30;;;24.00;93.30;;;;;;6240365;23;20245;-85
2023/08/01 05:31:26;;;;;;;0.20;0.20;;;24.00;93.30;;;;;;6241845;22;20178;-85
2023/08/01 05:33:54;;;;;;;0.60;0.43;;;24.00;93.20;;;;;;6237082;23;20224;-84
2023/08/01 05:36:23;;;;;;;0.60;0.60;;;24.10;93.10;;;;;;6240634;23;20173;-85
2023/08/01 05:38:52;;;;;;;0.35;0.35;;;24.10;93.10;;;;;;6239833;23;20173;-86
2023/08/01 05:41:22;;;;;;;0.38;0.38;;;24.20;93.10;;;;;;6237891;23;20616;-85
2023/08/01 05:43:51;;;;;;;0.70;0.65;;;24.20;93.00;;;;;;6240374;22;20171;-85
2023/08/01 05:46:19;;;;;;;0.52;0.52;;;24.30;93.00;;;;;;6241820;23;20169;-85
2023/08/01 05:48:48;;;;;;;1.75;1.25;;;24.30;93.00;;;;;;6266433;22;20577;-85
2023/08/01 05:51:17;;;;;;;0.32;0.22;;;24.30;92.90;;;;;;6238746;22;20990;-83
2023/08/01 05:53:46;;;;;;;0.40;0.40;;;24.40;92.80;;;;;;6241184;23;20169;-81
2023/08/01 05:56:14;;;;;;;0.40;0.40;;;24.40;92.70;;;;;;6261933;22;20253;-84
2023/08/01 05:58:44;;;;;;;0.25;0.25;;;24.50;92.70;;;;;;6241451;23;20171;-84
2023/08/01 06:01:13;;;;;;;0.50;0.30;;;24.50;92.60;;;;;;6237777;23;20389;-84
2023/08/01 06:03:42;;;;;;;0.52;0.40;;;24.60;92.70;;;;;;6240249;23;20297;-83
2023/08/01 06:06:11;;;;;;;0.30;0.30;;;24.70;92.50;;;;;;6236631;23;20549;-83
2023/08/01 06:08:39;;;;;;;0.25;0.25;;;24.70;92.40;;;;;;6239728;23;20173;-85
2023/08/01 06:11:08;;;;;;;0.75;0.55;;;24.80;92.00;;;;;;6237598;23;20243;-85
2023/08/01 06:13:36;;;;;;;0.55;0.52;;;24.80;91.90;;;;;;6239615;22;20167;-85
2023/08/01 06:16:06;;;;;;;0.50;0.38;;;24.80;91.80;;;;;;6239669;23;20171;-85
2023/08/01 06:18:34;;;;;;;0.60;0.50;;;24.90;91.90;;;;;;6239947;23;20220;-84
2023/08/01 06:21:03;;;;;;;2.58;0.47;;;25.00;91.90;;;;;;6239598;23;20193;-85
2023/08/01 06:23:31;;;;;;;0.38;0.38;;;25.10;91.90;;;;;;6243611;23;20198;-80
2023/08/01 06:26:00;;;;;;;0.32;0.32;;;25.10;91.70;;;;;;6239176;22;20177;-81
2023/08/01 06:28:28;;;;;;;0.43;0.43;;;25.20;91.60;;;;;;6241860;22;20159;-81
2023/08/01 06:30:57;;;;;;;0.63;0.57;;;25.30;91.60;;;;;;6239275;22;20174;-79
2023/08/01 06:33:27;;;;;;;0.30;0.30;;;25.30;91.10;;;;;;6238171;22;20201;-81
2023/08/01 06:35:55;;;;;;;0.30;0.30;;;25.40;91.10;;;;;;6238782;22;20387;-81
2023/08/01 06:38:24;;;;;;;1.33;0.20;;;25.50;91.10;;;;;;6239862;23;20781;-81
2023/08/01 06:40:52;;;;;;;0.20;0.20;;;25.50;90.70;;;;;;6240426;22;20172;-80
2023/08/01 06:43:20;;;;;;;1.55;0.35;;;25.60;90.50;;;;;;6240143;23;20198;-80
2023/08/01 06:45:50;;;;;;;0.57;0.50;;;25.70;90.50;;;;;;6239619;23;20208;-84
2023/08/01 06:48:19;;;;;;;0.22;0.22;;;25.80;90.50;;;;;;6239875;22;20178;-83
2023/08/01 06:50:49;;;;;;;0.40;0.40;;;25.80;90.50;;;;;;6239806;23;20173;-84
2023/08/01 06:53:17;;;;;;;0.43;0.30;;;25.90;90.10;;;;;;6241796;23;20170;-86
2023/08/01 06:55:46;;;;;;;0.28;0.28;;;26.00;89.10;;;;;;6242289;23;20193;-86
2023/08/01 06:58:15;;;;;;;0.93;0.75;;;26.00;89.10;;;;;;6241619;22;20613;-85
2023/08/01 07:00:43;;;;;;;0.22;0.22;;;26.00;89.30;;;;;;6240110;23;20174;-86
2023/08/01 07:03:12;;;;;;;0.28;0.28;;;26.10;89.20;;;;;;6242225;23;20198;-85
2023/08/01 07:05:40;;;;;;;1.42;0.60;;;26.10;89.10;;;;;;6240360;23;20918;-83
2023/08/01 07:08:10;;;;;;;0.40;0.40;;;26.20;88.90;;;;;;6241894;22;20167;-85
2023/08/01 07:10:39;;;;;;;0.38;0.38;;;26.30;88.70;;;;;;6242705;23;20171;-84
2023/08/01 07:13:07;;;;;;;0.90;0.63;;;26.30;88.40;;;;;;6242468;23;20170;-85
2023/08/01 07:15:36;;;;;;;0.32;0.32;;;26.40;88.50;;;;;;6242068;22;20639;-83
2023/08/01 07:18:04;;;;;;;0.30;0.30;;;26.40;88.20;;;;;;6243672;23;20511;-84
2023/08/01 07:20:34;;;;;;;0.28;0.28;;;26.50;88.30;;;;;;6217239;23;20178;-84
2023/08/01 07:23:02;;;;;;;0.68;0.68;;;26.60;88.00;;;;;;6243004;22;20198;-84
2023/08/01 07:25:32;;;;;;;0.40;0.40;;;26.60;87.70;;;;;;6244060;22;20177;-84
2023/08/01 07:28:01;;;;;;;0.55;0.55;;;26.70;87.60;;;;;;6243199;23;20718;-85
2023/08/01 07:30:30;;;;;;;0.30;0.30;;;26.70;87.30;;;;;;6244533;22;20196;-83
2023/08/01 07:32:58;;;;;;;0.50;0.30;;;26.80;87.20;;;;;;6243431;23;20162;-85
2023/08/01 07:35:27;;;;;;;0.38;0.35;;;26.80;87.10;;;;;;6240685;23;20666;-84
2023/08/01 07:37:56;;;;;;;0.20;0.20;;;26.80;86.80;;;;;;6244831;23;20509;-84
2023/08/01 07:40:24;;;;;;;0.60;0.30;;;26.90;86.60;;;;;;6243952;22;20167;-83
2023/08/01 07:42:55;;;;;;;0.40;0.40;;;26.90;86.70;;;;;;6244560;22;20241;-85
2023/08/01 07:45:23;;;;;;;0.40;0.35;;;27.00;86.50;;;;;;6243193;23;20507;-84
2023/08/01 07:47:52;;;;;;;1.00;0.73;;;27.00;86.10;;;;;;6242900;23;20190;-85
2023/08/01 07:50:20;;;;;;;0.45;0.43;;;27.10;85.70;;;;;;6243252;22;20311;-83
2023/08/01 07:52:49;;;;;;;0.60;0.50;;;27.10;85.50;;;;;;6242443;22;20632;-85
2023/08/01 07:55:18;;;;;;;0.63;0.50;;;27.20;85.30;;;;;;6245094;23;20253;-86
2023/08/01 07:57:47;;;;;;;0.57;0.50;;;27.20;84.50;;;;;;6244811;22;20170;-85
2023/08/01 08:00:17;;;;;;;0.28;0.22;;;27.20;84.00;;;;;;6243606;23;20181;-86
2023/08/01 08:02:47;;;;;;;0.40;0.32;;;27.30;82.70;;;;;;6244120;23;20240;-85
2023/08/01 08:05:16;;;;;;;0.88;0.75;;;27.30;83.10;;;;;;6243217;22;20159;-85
2023/08/01 08:07:44;;;;;;;0.47;0.47;;;27.40;82.50;;;;;;6243744;23;20175;-85
2023/08/01 08:10:14;;;;;;;0.50;0.50;;;27.40;82.50;;;;;;6243862;23;20174;-86
2023/08/01 08:12:42;;;;;;;0.65;0.55;;;27.40;82.70;;;;;;6243839;22;20177;-85
2023/08/01 08:15:13;;;;;;;0.35;0.35;;;27.50;82.70;;;;;;6243464;23;20198;-85
2023/08/01 08:17:43;;;;;;;0.52;0.50;;;27.60;82.70;;;;;;6268094;22;20177;-86
2023/08/01 08:20:11;;;;;;;0.75;0.30;;;27.60;82.50;;;;;;6243460;22;20181;-87
2023/08/01 08:22:40;;;;;;;0.20;0.20;;;27.60;82.40;;;;;;6243167;23;20170;-85
2023/08/01 08:25:09;;;;;;;0.40;0.40;;;27.70;81.90;;;;;;6243348;23;20163;-84
2023/08/01 08:27:37;;;;;;;0.38;0.38;;;27.70;81.60;;;;;;6243291;23;20167;-86
2023/08/01 08:30:07;;;;;;;0.68;0.60;;;27.70;81.30;;;;;;6244135;22;20166;-85
2023/08/01 08:32:36;;;;;;;1.38;1.15;;;27.80;81.00;;;;;;6244056;22;20167;-86
2023/08/01 08:35:07;;;;;;;0.38;0.38;;;27.80;80.70;;;;;;6243462;22;20182;-86
2023/08/01 08:37:37;;;;;;;0.20;0.20;;;27.80;80.80;;;;;;6243899;22;20531;-86
2023/08/01 08:40:06;;;;;;;0.20;0.20;;;27.90;79.70;;;;;;6243787;22;20537;-85
2023/08/01 08:42:35;;;;;;;0.98;0.82;;;27.90;80.00;;;;;;6243818;23;20245;-85
2023/08/01 08:45:07;;;;;;;0.25;0.25;;;28.00;78.50;;;;;;6240854;23;20236;-86
2023/08/01 08:47:39;;;;;;;0.47;0.40;;;28.00;78.80;;;;;;6243811;22;20237;-86
2023/08/01 08:50:11;;;;;;;0.63;0.52;;;28.00;78.90;;;;;;6242764;22;20666;-86
2023/08/01 08:52:41;;;;;;;0.75;0.75;;;28.10;78.80;;;;;;6243466;23;20155;-84
2023/08/01 08:55:10;;;;;;;0.82;0.50;;;28.10;77.20;;;;;;6241160;23;20175;-85
2023/08/01 08:57:39;;;;;;;0.57;0.55;;;28.10;76.70;;;;;;6243028;23;20170;-84
2023/08/01 09:00:09;;;;;;;3.53;0.60;;;28.20;76.00;;;;;;6243831;23;20587;-86
2023/08/01 09:02:38;;;;;;;0.38;0.38;;;28.20;76.30;;;;;;6241491;23;20163;-85
2023/08/01 09:05:07;;;;;;;0.30;0.30;;;28.20;76.50;;;;;;6243427;22;20190;-86
2023/08/01 09:07:42;;;;;;;0.20;0.20;;;28.30;76.50;;;;;;6243762;22;20167;-85
2023/08/01 09:10:10;;;;;;;1.40;0.55;;;28.30;75.80;;;;;;6242914;22;20217;-86
2023/08/01 09:12:39;;;;;;;0.40;0.40;;;28.40;76.30;;;;;;6241611;23;20181;-86
2023/08/01 09:15:09;;;;;;;0.30;0.28;;;28.50;76.10;;;;;;6241101;23;20567;-86
2023/08/01 09:17:49;;;;;;;0.55;0.30;;;28.60;75.70;;;;;;6242863;23;20166;-86
2023/08/01 09:20:18;;;;;;;1.30;1.10;;;28.60;73.80;;;;;;6243280;23;20159;-83
2023/08/01 09:22:48;;;;;;;2.35;0.82;;;28.60;73.40;;;;;;6243683;23;20249;-88
2023/08/01 09:25:17;;;;;;;0.25;0.25;;;28.70;73.40;;;;;;6243609;23;20636;-86
2023/08/01 09:27:46;;;;;;;0.38;0.38;;;28.70;73.70;;;;;;6243713;22;20541;-86
2023/08/01 09:30:17;;;;;;;0.20;0.20;;;28.80;74.10;;;;;;6241299;23;20209;-87
2023/08/01 09:32:53;;;;;;;1.00;0.50;;;28.80;73.60;;;;;;6242971;23;20620;-86
2023/08/01 09:35:22;;;;;;;0.35;0.35;;;28.90;72.90;;;;;;6242084;23;20163;-85
2023/08/01 09:37:52;;;;;;;0.45;0.45;;;29.00;73.10;;;;;;6244129;23;20166;-83
2023/08/01 09:40:21;;;;;;;0.20;0.20;;;29.00;72.40;;;;;;6241378;23;20498;-84
2023/08/01 09:42:49;;;;;;;0.68;0.30;;;29.00;71.70;;;;;;6241779;23;20162;-86
2023/08/01 09:45:19;;;;;;;0.32;0.32;;;29.00;71.70;;;;;;6242763;23;20770;-86
2023/08/01 09:47:47;;;;;;;0.40;0.40;;;29.10;71.30;;;;;;6242582;23;20173;-85
2023/08/01 09:50:22;;;;;;;0.52;0.45;;;29.10;68.90;;;;;;6241571;22;20225;-86
2023/08/01 09:52:53;;;;;;;0.30;0.30;;;29.10;69.20;;;;;;6243780;23;20193;-86
2023/08/01 09:55:27;;;;;;;8.35;0.95;;;29.20;69.20;;;;;;6242054;23;20238;-84
2023/08/01 09:57:58;;;;;;;0.40;0.40;;;29.20;69.20;;;;;;6241835;23;20157;-87
2023/08/01 10:00:28;;;;;;;0.40;0.40;;;29.30;70.00;;;;;;6242986;23;20165;-85
2023/08/01 10:02:59;;;;;;;0.20;0.20;;;29.40;70.60;;;;;;6243351;22;20202;-86
2023/08/01 10:05:32;;;;;;;1.40;0.50;;;29.40;70.20;;;;;;6243031;23;20182;-84
2023/08/01 10:08:05;;;;;;;0.35;0.30;;;29.50;68.80;;;;;;6242147;22;20189;-86
2023/08/01 10:10:34;;;;;;;0.40;0.40;;;29.50;69.00;;;;;;6243491;22;20600;-84
2023/08/01 10:13:02;;;;;;;1.00;0.77;;;29.60;69.30;;;;;;6242225;23;20253;-84
2023/08/01 10:15:32;;;;;;;0.68;0.68;;;29.60;69.10;;;;;;6242188;23;20624;-83
2023/08/01 10:18:01;;;;;;;0.90;0.88;;;29.70;68.70;;;;;;6243836;23;20166;-86
2023/08/01 10:20:32;;;;;;;0.20;0.20;;;29.70;67.30;;;;;;6243516;22;20174;-83
2023/08/01 10:23:02;;;;;;;0.30;0.30;;;29.80;67.10;;;;;;6242453;23;20166;-86
2023/08/01 10:25:31;;;;;;;1.05;0.98;;;29.90;67.80;;;;;;6242175;23;20182;-84
2023/08/01 10:28:00;;;;;;;0.50;0.50;;;29.90;67.70;;;;;;6241214;23;20172;-86
2023/08/01 10:30:30;;;;;;;0.50;0.50;;;30.00;67.50;;;;;;6240385;22;20167;-86
2023/08/01 10:33:00;;;;;;;0.22;0.22;;;30.00;67.70;;;;;;6237161;23;20918;-83
2023/08/01 10:35:37;;;;;;;0.52;0.30;;;30.10;67.10;;;;;;6240332;23;20166;-81
2023/08/01 10:38:09;;;;;;;0.40;0.40;;;30.20;67.20;;;;;;6238395;23;20665;-83
2023/08/01 10:40:39;;;;;;;0.63;0.40;;;30.20;67.20;;;;;;6239773;23;20632;-82
2023/08/01 10:43:19;;;;;;;1.08;0.38;;;30.30;66.10;;;;;;6240054;23;20162;-83
2023/08/01 10:45:48;;;;;;;1.48;1.15;;;30.30;65.70;;;;;;6238555;23;20197;-81
2023/08/01 10:48:17;;;;;;;0.38;0.38;;;30.30;64.80;;;;;;6240588;23;20174;-80
2023/08/01 10:50:56;;;;;;;0.88;0.40;;;30.40;65.30;;;;;;6239221;23;20177;-83
2023/08/01 10:53:26;;;;;;;0.38;0.38;;;30.40;65.20;;;;;;6241753;23;20154;-82
2023/08/01 10:55:55;;;;;;;0.30;0.30;;;30.50;65.70;;;;;;6243697;23;20198;-81
2023/08/01 10:58:28;;;;;;;0.45;0.45;;;30.60;65.90;;;;;;6243727;22;20249;-82
2023/08/01 11:00:59;;;;;;;4.32;0.40;;;30.60;64.30;;;;;;6241521;22;20162;-81
2023/08/01 11:03:36;;;;;;;0.70;0.70;;;30.70;64.70;;;;;;6240072;23;20244;-82
2023/08/01 11:06:05;;;;;;;1.60;0.73;;;30.70;64.40;;;;;;6240916;22;20193;-81
2023/08/01 11:08:39;;;;;;;0.30;0.30;;;30.70;64.40;;;;;;6241402;22;20252;-81
2023/08/01 11:11:11;;;;;;;0.77;0.40;;;30.80;64.60;;;;;;6241822;23;20209;-83
2023/08/01 11:13:50;;;;;;;0.55;0.52;;;30.80;64.50;;;;;;6243011;23;20536;-81
2023/08/01 11:16:19;;;;;;;0.65;0.60;;;30.80;64.70;;;;;;6241670;23;20162;-81
2023/08/01 11:18:47;;;;;;;0.28;0.28;;;30.90;64.30;;;;;;6241967;23;20628;-81
2023/08/01 11:21:27;;;;;;;0.50;0.50;;;31.00;64.40;;;;;;6241392;22;20229;-81
2023/08/01 11:23:57;;;;;;;0.20;0.20;;;31.00;63.50;;;;;;6240438;23;20166;-81
2023/08/01 11:26:26;;;;;;;0.30;0.30;;;31.10;63.00;;;;;;6242208;23;20186;-81
2023/08/01 11:28:55;;;;;;;0.30;0.30;;;31.10;63.50;;;;;;6242927;23;20583;-82
2023/08/01 11:31:24;;;;;;;0.70;0.60;;;31.00;63.20;;;;;;6241113;23;20174;-82
2023/08/01 11:33:57;;;;;;;0.30;0.30;;;30.90;60.30;;;;;;6243479;23;20155;-81
2023/08/01 11:36:28;;;;;;;0.57;0.57;;;31.00;60.10;;;;;;6243340;23;20159;-82
2023/08/01 11:39:00;;;;;;;0.22;0.22;;;31.10;61.00;;;;;;6242572;23;20161;-82
2023/08/01 11:41:29;;;;;;;0.25;0.25;;;31.10;61.70;;;;;;6243040;23;20213;-81
2023/08/01 11:44:04;;;;;;;0.20;0.20;;;31.10;61.70;;;;;;6242111;22;20170;-82
2023/08/01 11:46:34;;;;;;;0.20;0.20;;;31.20;62.00;;;;;;6240678;23;20186;-80
2023/08/01 11:49:03;;;;;;;0.73;0.40;;;31.30;61.40;;;;;;6239524;22;20166;-80
2023/08/01 11:51:40;;;;;;;0.63;0.50;;;31.30;61.40;;;;;;6242367;23;20245;-82
2023/08/01 11:54:12;;;;;;;0.28;0.28;;;31.40;61.40;;;;;;6243362;23;20237;-82
2023/08/01 11:56:42;;;;;;;0.20;0.20;;;31.40;61.60;;;;;;6243714;23;20170;-83
2023/08/01 11:59:16;;;;;;;0.35;0.35;;;31.40;60.70;;;;;;6241784;23;20154;-84
2023/08/01 12:01:46;;;;;;;0.50;0.50;;;31.50;60.40;;;;;;6242308;22;20159;-82
2023/08/01 12:04:25;;;;;;;0.28;0.28;;;31.50;59.70;;;;;;6243018;23;20198;-83
2023/08/01 12:06:55;;;;;;;0.43;0.43;;;31.50;60.50;;;;;;6242356;23;20214;-82
2023/08/01 12:09:25;;;;;;;0.45;0.38;;;31.60;60.50;;;;;;6244164;22;20178;-82
2023/08/01 12:12:00;;;;;;;0.30;0.30;;;31.70;61.10;;;;;;6242196;22;20167;-82
2023/08/01 12:14:30;;;;;;;0.52;0.52;;;31.70;60.30;;;;;;6243224;23;20193;-82
2023/08/01 12:16:58;;;;;;;0.73;0.68;;;31.70;60.60;;;;;;6242217;23;20519;-83
2023/08/01 12:19:26;;;;;;;0.30;0.30;;;31.70;59.50;;;;;;6244099;23;20171;-87
2023/08/01 12:21:55;;;;;;;2.92;0.75;;;31.80;60.00;;;;;;6237089;23;20178;-82
2023/08/01 12:24:25;;;;;;;0.40;0.40;;;31.80;59.70;;;;;;6239207;23;20401;-85
2023/08/01 12:26:53;;;;;;;0.60;0.60;;;31.80;59.90;;;;;;6240085;23;20272;-84
2023/08/01 12:29:22;;;;;;;0.20;0.20;;;31.90;60.10;;;;;;6240157;23;20251;-84
2023/08/01 12:31:51;;;;;;;0.20;0.20;;;31.90;60.00;;;;;;6242524;23;20155;-85
2023/08/01 12:34:19;;;;;;;0.40;0.40;;;31.90;59.70;;;;;;6240593;23;20169;-84
2023/08/01 12:36:48;;;;;;;0.82;0.82;;;32.00;59.70;;;;;;6242034;23;20182;-85
2023/08/01 12:39:16;;;;;;;0.65;0.65;;;32.00;59.60;;;;;;6241021;23;20224;-85
2023/08/01 12:41:46;;;;;;;0.90;0.68;;;32.00;59.70;;;;;;6243409;22;20250;-87
2023/08/01 12:44:15;;;;;;;0.40;0.40;;;32.00;59.60;;;;;;6240337;23;20201;-81
2023/08/01 12:46:44;;;;;;;0.68;0.52;;;32.10;59.40;;;;;;6241138;23;20256;-84
2023/08/01 12:49:12;;;;;;;0.40;0.40;;;32.10;58.30;;;;;;6240511;22;20169;-82
2023/08/01 12:51:41;;;;;;;0.40;0.40;;;32.10;58.30;;;;;;6240152;23;20500;-84
2023/08/01 12:54:09;;;;;;;0.40;0.40;;;32.20;57.50;;;;;;6239662;22;20167;-82
2023/08/01 12:56:38;;;;;;;0.30;0.30;;;32.20;57.80;;;;;;6242849;23;20228;-82
2023/08/01 12:59:09;;;;;;;2.78;1.05;;;32.20;58.00;;;;;;6240423;23;20685;-82